Time;durP1;ratioP1;P1;durP2;ratioP2;P2;SDS_P1;SDS_P2;PMS_P1;PMS_P2;Temp;Humidity;BMP_temperature;BMP_pressure;BME280_temperature;BME280_humidity;BME280_pressure;Samples;Min_cycle;Max_cycle;Signal;HPM_P1;HPM_P2
2022/05/23 00:06:05;;;;;;;1.75;1.10;;;;;;;19.70;47.53;95964.91;6237468;23;20031;-82
2022/05/23 00:17:38;;;;;;;1.45;1.00;;;;;;;19.73;46.98;95956.47;6245709;22;20089;-80
2022/05/23 00:20:36;;;;;;;2.05;1.17;;;;;;;19.71;46.68;95959.38;6244095;23;20047;-80
2022/05/23 01:43:30;;;;;;;3.38;1.45;;;;;;;19.25;46.22;95906.13;6250515;22;20019;-79
2022/05/23 01:49:12;;;;;;;7.60;1.48;;;;;;;19.18;46.89;95905.56;6273938;22;20060;-79
2022/05/23 02:10:48;;;;;;;4.00;1.98;;;;;;;18.97;47.80;95898.50;6243298;23;20008;-86
2022/05/23 02:13:23;;;;;;;4.15;1.98;;;;;;;18.94;47.98;95889.25;6242109;23;20008;-83
2022/05/23 02:15:57;;;;;;;1.63;1.40;;;;;;;18.91;48.02;95895.03;6242731;23;20018;-83
2022/05/23 02:18:32;;;;;;;2.22;1.63;;;;;;;18.91;47.82;95889.72;6243578;23;20031;-83
2022/05/23 02:21:00;;;;;;;3.22;1.60;;;;;;;18.86;48.04;95890.50;6243651;23;20011;-82
2022/05/23 02:23:32;;;;;;;1.80;1.40;;;;;;;18.79;48.24;95884.63;6244255;23;20023;-83
2022/05/23 02:26:07;;;;;;;1.50;1.40;;;;;;;18.75;48.46;95886.16;6243180;23;20025;-82
2022/05/23 02:28:40;;;;;;;4.47;2.28;;;;;;;18.71;48.50;95880.56;6244619;23;20012;-83
2022/05/23 02:31:11;;;;;;;2.22;1.52;;;;;;;18.68;48.74;95881.06;6244357;23;20021;-83
2022/05/23 02:33:43;;;;;;;3.28;1.63;;;;;;;18.64;48.68;95871.25;6244764;23;20012;-83
2022/05/23 02:36:14;;;;;;;2.13;1.70;;;;;;;18.58;49.07;95872.25;6243613;23;20013;-84
2022/05/23 02:38:54;;;;;;;3.28;1.80;;;;;;;18.51;49.27;95864.53;6244390;23;20007;-82
2022/05/23 02:41:30;;;;;;;3.40;2.15;;;;;;;18.46;49.69;95862.63;6245041;23;20008;-83
2022/05/23 02:44:19;;;;;;;2.53;1.90;;;;;;;18.41;49.74;95862.59;6244957;23;20044;-83
2022/05/23 02:50:26;;;;;;;3.90;1.85;;;;;;;18.28;49.84;95850.59;6244223;23;20035;-82
2022/05/23 05:11:24;;;;;;;4.85;3.40;;;;;;;17.71;53.51;95977.59;6286122;22;20050;-81
2022/05/23 05:13:59;;;;;;;3.08;2.08;;;;;;;17.76;53.14;95998.75;6305858;22;20007;-82
2022/05/23 05:16:40;;;;;;;3.25;2.95;;;;;;;17.83;52.93;96004.69;6304852;22;20011;-83
2022/05/23 05:20:01;;;;;;;3.38;1.73;;;;;;;17.90;52.91;96007.94;6305543;22;20016;-85
2022/05/23 05:22:29;;;;;;;4.82;2.38;;;;;;;17.94;53.03;96021.47;6280105;22;20026;-79
2022/05/23 05:24:57;;;;;;;2.70;1.73;;;;;;;17.99;53.37;96053.19;6303620;22;20008;-80
2022/05/23 05:27:26;;;;;;;3.97;1.77;;;;;;;18.04;53.50;96063.84;6301463;22;20024;-80
2022/05/23 05:29:54;;;;;;;3.47;1.70;;;;;;;18.09;53.39;96065.75;6299979;22;20026;-80
2022/05/23 05:32:29;;;;;;;2.47;1.67;;;;;;;18.14;53.52;96083.50;6302143;22;20010;-80
2022/05/23 05:35:00;;;;;;;3.33;1.95;;;;;;;18.18;53.92;96087.25;6285522;22;20016;-79
2022/05/23 05:37:32;;;;;;;3.42;2.30;;;;;;;18.20;54.28;96069.34;6275473;22;20020;-79
2022/05/23 05:40:03;;;;;;;6.25;2.03;;;;;;;18.20;54.40;96069.34;6275800;22;20026;-79
2022/05/23 05:42:35;;;;;;;2.97;1.90;;;;;;;18.22;54.76;96075.97;6275248;22;20028;-79
2022/05/23 05:45:08;;;;;;;3.80;2.00;;;;;;;18.25;55.67;96093.16;6275087;22;20051;-79
2022/05/23 05:47:37;;;;;;;;;;;;;;;18.27;55.35;96075.22;6274195;22;20020;-79
2022/05/23 05:50:09;;;;;;;5.68;2.20;;;;;;;18.28;55.67;96061.00;6276704;22;19998;-79
2022/05/23 05:52:37;;;;;;;3.23;2.13;;;;;;;18.27;56.10;96039.06;6277553;22;20024;-79
2022/05/23 05:55:06;;;;;;;5.93;2.50;;;;;;;18.21;56.21;96008.34;6277251;22;20591;-79
2022/05/23 05:57:36;;;;;;;6.07;2.65;;;;;;;18.14;56.99;95977.91;6275884;22;20019;-79
2022/05/23 06:00:05;;;;;;;3.63;2.50;;;;;;;18.05;57.83;95941.38;6276300;22;20022;-79
2022/05/23 06:02:37;;;;;;;3.63;2.55;;;;;;;18.00;58.86;95941.31;6280262;22;20071;-80
2022/05/23 06:13:19;;;;;;;5.80;2.63;;;;;;;17.92;58.80;95915.34;6264835;23;20026;-77
2022/05/23 06:15:47;;;;;;;5.25;3.70;;;;;;;17.87;59.23;95878.38;6273921;22;20011;-78
2022/05/23 06:18:14;;;;;;;4.03;2.80;;;;;;;17.82;59.69;95857.19;6274541;22;20016;-78
2022/05/23 06:20:42;;;;;;;3.10;2.78;;;;;;;17.76;59.75;95866.84;6270362;22;20046;-78
2022/05/23 06:23:10;;;;;;;5.68;2.70;;;;;;;17.76;60.16;95852.88;6268572;23;20036;-78
2022/05/23 06:25:37;;;;;;;5.78;2.95;;;;;;;17.76;60.83;95861.59;6271683;22;20076;-78
2022/05/23 06:28:05;;;;;;;2.97;2.55;;;;;;;17.76;60.84;95853.66;6266137;23;20027;-77
2022/05/23 06:30:34;;;;;;;2.85;2.58;;;;;;;17.76;61.13;95850.25;6267101;23;20095;-77
2022/05/23 06:33:02;;;;;;;3.42;2.20;;;;;;;17.78;61.49;95842.88;6267859;23;20031;-76
2022/05/23 06:35:29;;;;;;;6.55;2.83;;;;;;;17.80;61.20;95830.22;6271719;22;20039;-78
2022/05/23 06:37:57;;;;;;;4.45;2.58;;;;;;;17.74;60.85;95823.31;6272847;22;20052;-77
2022/05/23 06:40:24;;;;;;;4.28;2.30;;;;;;;17.67;61.33;95824.28;6273222;22;20027;-76
2022/05/23 06:42:58;;;;;;;2.53;2.33;;;;;;;17.62;61.23;95816.31;6273262;22;20016;-76
2022/05/23 06:45:26;;;;;;;3.10;2.80;;;;;;;17.61;61.37;95812.06;6272999;22;20012;-78
2022/05/23 06:47:57;;;;;;;4.38;3.30;;;;;;;17.62;61.40;95794.41;6271601;22;20031;-77
2022/05/23 06:50:25;;;;;;;3.97;2.70;;;;;;;17.64;61.55;95779.94;6274601;22;20020;-78
2022/05/23 06:52:53;;;;;;;3.05;2.70;;;;;;;17.68;61.28;95773.13;6273608;22;20099;-77
2022/05/23 06:55:20;;;;;;;3.83;2.80;;;;;;;17.74;61.38;95776.63;6270034;22;20024;-78
2022/05/23 06:57:48;;;;;;;3.03;2.70;;;;;;;17.80;61.24;95783.56;6272800;22;20055;-77
2022/05/23 07:00:17;;;;;;;3.88;2.58;;;;;;;17.74;60.93;95749.44;6273804;22;20008;-77
2022/05/23 07:02:46;;;;;;;4.78;2.50;;;;;;;17.69;61.35;95737.81;6274214;22;20035;-79
2022/05/23 07:13:31;;;;;;;3.17;2.38;;;;;;;17.87;60.84;95714.78;6273279;22;20023;-78
2022/05/23 07:16:00;;;;;;;4.40;2.50;;;;;;;17.94;61.13;95711.94;6257508;22;20024;-80
2022/05/23 07:18:30;;;;;;;5.32;2.35;;;;;;;18.02;60.89;95714.94;6267064;22;20004;-81
2022/05/23 07:20:59;;;;;;;5.53;2.10;;;;;;;18.10;60.57;95711.84;6274128;22;20020;-77
2022/05/23 07:23:28;;;;;;;4.18;2.30;;;;;;;18.14;60.18;95698.13;6273947;22;20004;-78
2022/05/23 07:28:43;;;;;;;3.97;2.40;;;;;;;18.26;60.42;95693.50;6282594;22;20010;-80
2022/05/23 07:31:54;;;;;;;2.38;1.90;;;;;;;18.37;60.39;95695.16;6274836;23;20015;-79
2022/05/23 07:52:06;;;;;;;3.30;2.15;;;;;;;19.35;58.98;95670.84;6304653;22;20041;-79
2022/05/23 08:00:41;;;;;;;4.93;2.17;;;;;;;19.54;57.31;95643.91;6270433;22;20008;-79
2022/05/23 08:05:50;;;;;;;3.70;1.20;;;;;;;19.57;56.68;95643.41;6242045;22;20068;-78
2022/05/23 08:08:18;;;;;;;4.68;1.83;;;;;;;19.58;57.00;95644.19;6266529;22;20039;-80
2022/05/23 08:10:47;;;;;;;2.80;2.10;;;;;;;19.59;56.87;95646.59;6296182;22;20051;-79
2022/05/23 08:13:20;;;;;;;2.88;1.88;;;;;;;19.55;56.62;95650.81;6298589;22;20452;-81
2022/05/23 08:15:48;;;;;;;5.90;2.00;;;;;;;19.51;56.67;95644.44;6275195;22;20020;-80
2022/05/23 08:18:19;;;;;;;4.00;1.77;;;;;;;19.48;56.93;95635.19;6301777;22;20024;-80
2022/05/23 08:20:48;;;;;;;5.72;2.35;;;;;;;19.45;56.86;95630.41;6301964;22;20020;-80
2022/05/23 08:23:17;;;;;;;5.05;1.77;;;;;;;19.45;57.17;95621.69;6302117;22;20020;-80
2022/05/23 08:25:46;;;;;;;3.00;2.03;;;;;;;19.46;57.13;95620.63;6274294;22;20046;-80
2022/05/23 08:28:15;;;;;;;3.47;1.60;;;;;;;19.47;56.73;95609.78;6300734;22;20035;-80
2022/05/23 08:30:46;;;;;;;19.52;4.15;;;;;;;19.50;56.96;95626.97;6270751;22;20024;-80
2022/05/23 08:33:14;;;;;;;3.17;1.70;;;;;;;19.55;56.74;95619.06;6295027;22;20020;-80
2022/05/23 08:35:45;;;;;;;52.88;9.02;;;;;;;19.60;56.67;95619.06;6301334;22;20030;-80
2022/05/23 08:38:15;;;;;;;11.10;2.47;;;;;;;19.65;56.46;95608.47;6300516;22;20019;-80
2022/05/23 08:40:54;;;;;;;2.65;2.03;;;;;;;19.71;55.84;95609.31;6299087;22;20030;-79
2022/05/23 08:43:28;;;;;;;3.13;2.15;;;;;;;19.73;55.88;95623.88;6296958;22;20043;-78
2022/05/23 08:45:59;;;;;;;2.88;1.80;;;;;;;19.74;55.30;95622.84;6298039;22;20016;-81
2022/05/23 08:54:20;;;;;;;6.53;2.30;;;;;;;19.66;56.32;95630.47;6242777;23;20071;-79
2022/05/23 08:56:57;;;;;;;3.80;1.90;;;;;;;19.66;56.74;95635.75;6241199;23;20047;-80
2022/05/23 08:59:32;;;;;;;4.97;1.90;;;;;;;19.69;57.08;95635.22;6213021;23;20021;-80
2022/05/23 09:04:47;;;;;;;11.88;3.22;;;;;;;19.70;56.84;95608.53;6240713;23;20084;-79
2022/05/23 09:09:59;;;;;;;3.50;2.25;;;;;;;19.78;57.16;95590.53;6278755;22;20020;-79
2022/05/23 09:15:13;;;;;;;3.10;1.90;;;;;;;19.81;56.96;95600.59;6272287;22;20029;-79
2022/05/23 09:17:48;;;;;;;4.72;1.80;;;;;;;19.83;57.24;95606.41;6303286;22;20016;-79
2022/05/23 09:20:36;;;;;;;3.53;1.92;;;;;;;19.87;57.12;95588.94;6304434;22;20014;-79
2022/05/23 09:28:39;;;;;;;4.18;2.10;;;;;;;19.93;56.33;95582.59;6236166;22;20027;-78
2022/05/23 09:31:20;;;;;;;4.93;2.50;;;;;;;19.92;56.37;95583.66;6216130;23;20080;-79
2022/05/23 09:37:26;;;;;;;10.00;2.45;;;;;;;19.97;56.13;95573.06;6257347;22;20011;-78
2022/05/23 09:40:36;;;;;;;3.00;1.65;;;;;;;20.05;56.56;95587.59;6252498;22;20024;-78
2022/05/23 09:49:01;;;;;;;6.35;2.65;;;;;;;20.13;55.68;95582.56;6334553;22;20042;-78
2022/05/23 09:51:48;;;;;;;4.47;2.30;;;;;;;20.15;55.94;95583.09;6334567;22;20031;-77
2022/05/23 09:54:30;;;;;;;6.15;1.88;;;;;;;20.17;55.71;95585.47;6333862;22;20063;-79
2022/05/23 09:57:20;;;;;;;6.13;2.17;;;;;;;20.17;55.65;95573.03;6334191;22;20003;-79
2022/05/23 10:00:07;;;;;;;3.50;2.10;;;;;;;20.23;55.82;95571.19;6334664;22;20019;-80
2022/05/23 10:02:56;;;;;;;4.65;1.83;;;;;;;20.26;56.04;95560.03;6334867;22;20033;-80
2022/05/23 10:05:30;;;;;;;5.22;2.25;;;;;;;20.29;56.35;95564.00;6334941;22;20029;-79
2022/05/23 10:11:08;;;;;;;9.80;3.03;;;;;;;20.33;56.96;95570.34;6320560;22;20043;-79
2022/05/23 10:14:06;;;;;;;5.82;3.47;;;;;;;20.35;57.50;95565.56;6311121;22;20035;-79
2022/05/23 10:16:45;;;;;;;7.00;3.83;;;;;;;20.40;57.95;95549.69;6311658;22;20041;-79
2022/05/23 10:19:31;;;;;;;7.97;2.97;;;;;;;20.45;58.99;95546.22;6314895;22;20038;-79
2022/05/23 14:08:05;;;;;;;5.72;1.77;;;;;;;21.05;61.92;95442.84;6247107;22;20046;-80
2022/05/23 14:10:38;;;;;;;4.40;1.80;;;;;;;21.09;61.50;95443.88;6260575;23;20016;-82
2022/05/23 14:13:08;;;;;;;5.05;1.60;;;;;;;21.11;61.06;95437.22;6260028;23;20500;-80
2022/05/23 14:15:36;;;;;;;9.57;1.85;;;;;;;21.16;61.24;95434.53;6259940;23;20028;-80
2022/05/23 14:18:12;;;;;;;2.10;1.35;;;;;;;21.23;61.01;95439.53;6258086;23;20051;-79
2022/05/23 14:20:46;;;;;;;8.93;2.10;;;;;;;21.29;60.80;95437.63;6259955;23;20360;-82
2022/05/23 14:23:24;;;;;;;5.22;1.55;;;;;;;21.32;60.66;95437.88;6260243;23;20024;-79
2022/05/23 14:26:09;;;;;;;7.10;2.28;;;;;;;21.38;60.90;95447.38;6258679;22;20054;-79
2022/05/23 14:28:49;;;;;;;4.30;1.67;;;;;;;21.44;60.85;95447.34;6257565;23;20036;-78
2022/05/23 14:31:30;;;;;;;7.80;2.08;;;;;;;21.48;61.18;95435.91;6257156;23;20071;-79
2022/05/23 14:34:00;;;;;;;5.13;1.60;;;;;;;21.53;60.48;95432.41;6255915;23;20024;-80
2022/05/23 14:36:28;;;;;;;6.05;2.08;;;;;;;21.58;60.35;95416.44;6254550;22;20032;-82
2022/05/23 14:38:59;;;;;;;4.78;1.77;;;;;;;21.62;59.95;95412.16;6254853;23;20016;-78
2022/05/23 14:41:29;;;;;;;4.68;1.52;;;;;;;21.66;60.35;95410.50;6258620;23;20024;-79
2022/05/23 14:44:06;;;;;;;4.40;1.95;;;;;;;21.71;59.84;95407.00;6260520;23;20024;-79
2022/05/23 14:46:36;;;;;;;5.68;1.80;;;;;;;21.75;58.95;95403.50;6261320;23;20111;-80
2022/05/23 14:49:06;;;;;;;3.28;1.67;;;;;;;21.79;59.02;95409.84;6262764;23;20050;-79
2022/05/23 14:51:36;;;;;;;5.35;1.75;;;;;;;21.84;58.43;95410.88;6261884;23;20058;-79
2022/05/23 14:57:06;;;;;;;6.13;1.58;;;;;;;21.92;59.03;95407.59;6261483;23;20051;-80
2022/05/23 15:02:27;;;;;;;;;;;;;;;21.98;58.76;95422.41;6239675;22;20044;-79
2022/05/23 15:04:55;;;;;;;5.85;1.60;;;;;;;22.02;58.41;95418.13;6256312;23;19982;-81
2022/05/23 15:07:23;;;;;;;3.45;1.38;;;;;;;22.07;58.09;95426.00;6255549;23;20464;-80
2022/05/23 15:09:54;;;;;;;5.85;1.60;;;;;;;22.11;58.00;95439.53;6255324;22;20039;-80
2022/05/23 15:12:24;;;;;;;4.45;1.92;;;;;;;22.14;57.34;95450.34;6256760;23;20337;-79
2022/05/23 15:14:53;;;;;;;4.43;1.40;;;;;;;22.17;57.09;95463.09;6256860;23;20027;-80
2022/05/23 15:17:24;;;;;;;5.13;1.70;;;;;;;22.20;57.17;95467.81;6255506;23;20062;-81
2022/05/23 15:19:53;;;;;;;4.55;1.17;;;;;;;22.23;56.52;95471.00;6254034;23;20024;-79
2022/05/23 15:22:22;;;;;;;4.15;1.90;;;;;;;22.27;56.76;95472.03;6253531;23;20077;-77
2022/05/23 15:24:51;;;;;;;9.85;2.08;;;;;;;22.29;56.91;95472.53;6252789;23;20040;-81
2022/05/23 15:27:22;;;;;;;7.97;1.85;;;;;;;22.32;56.45;95475.41;6252661;23;20034;-80
2022/05/23 15:29:50;;;;;;;5.95;1.48;;;;;;;22.35;56.50;95469.53;6254127;23;20027;-81
2022/05/23 15:32:18;;;;;;;4.15;1.38;;;;;;;22.39;56.83;95467.09;6254051;23;20326;-78
2022/05/23 15:34:46;;;;;;;5.72;1.90;;;;;;;22.44;56.63;95475.00;6252737;23;20020;-83
2022/05/23 15:37:14;;;;;;;4.22;1.65;;;;;;;22.48;56.85;95472.56;6251654;23;20526;-80
2022/05/23 15:39:42;;;;;;;5.82;1.42;;;;;;;22.50;57.05;95479.19;6254830;23;20099;-79
2022/05/23 15:42:15;;;;;;;3.60;1.40;;;;;;;22.53;56.91;95477.84;6258736;23;20028;-82
2022/05/23 15:44:43;;;;;;;11.20;2.45;;;;;;;22.55;56.92;95481.00;6259804;23;20047;-83
2022/05/23 15:47:13;;;;;;;9.95;1.77;;;;;;;22.57;56.80;95476.97;6257875;23;20072;-82
2022/05/23 15:49:41;;;;;;;5.95;1.60;;;;;;;22.56;56.67;95475.38;6257694;23;20016;-82
2022/05/23 15:52:09;;;;;;;4.32;1.83;;;;;;;22.56;57.00;95470.06;6257770;23;20406;-80
2022/05/23 15:54:44;;;;;;;3.13;1.45;;;;;;;22.57;56.76;95473.53;6256941;23;20096;-80
2022/05/23 15:57:15;;;;;;;6.30;2.28;;;;;;;22.55;56.89;95476.47;6254743;23;20020;-80
2022/05/23 15:59:43;;;;;;;5.47;1.23;;;;;;;22.54;57.14;95485.53;6255049;23;20401;-80
2022/05/23 16:02:11;;;;;;;4.43;1.63;;;;;;;22.54;57.02;95501.47;6252973;23;20054;-79
2022/05/23 16:04:40;;;;;;;6.30;1.60;;;;;;;22.51;56.92;95512.66;6254346;23;20099;-80
2022/05/23 16:07:08;;;;;;;3.03;1.42;;;;;;;22.47;57.08;95529.44;6253050;23;20055;-80
2022/05/23 16:09:36;;;;;;;4.68;1.30;;;;;;;22.42;57.31;95552.34;6255256;23;20477;-80
2022/05/23 16:12:06;;;;;;;2.08;1.17;;;;;;;22.37;57.61;95572.88;6252713;23;20022;-80
2022/05/23 16:14:36;;;;;;;5.25;2.03;;;;;;;22.30;58.25;95588.34;6253934;23;20051;-80
2022/05/23 16:17:07;;;;;;;5.70;1.60;;;;;;;22.25;58.50;95596.38;6256344;23;20071;-79
2022/05/23 16:19:36;;;;;;;7.10;2.03;;;;;;;22.23;60.39;95609.13;6257414;23;20021;-82
2022/05/23 16:22:07;;;;;;;6.78;1.85;;;;;;;22.16;61.71;95615.53;6255441;23;20027;-80
2022/05/23 16:24:35;;;;;;;7.70;2.13;;;;;;;22.12;61.79;95624.34;6253909;23;20012;-81
2022/05/23 16:27:22;;;;;;;6.10;1.92;;;;;;;22.08;62.89;95599.41;6252094;23;20031;-80
2022/05/23 16:29:51;;;;;;;6.40;1.83;;;;;;;22.04;63.29;95585.09;6254815;23;20020;-82
2022/05/23 16:38:10;;;;;;;3.40;1.58;;;;;;;21.81;64.35;95524.50;6258519;23;20044;-81
2022/05/23 16:40:38;;;;;;;5.63;2.17;;;;;;;21.68;64.60;95519.84;6260582;23;20027;-81
2022/05/23 16:43:06;;;;;;;6.88;2.72;;;;;;;21.56;65.26;95533.47;6261873;23;20091;-83
2022/05/23 16:45:36;;;;;;;5.75;1.90;;;;;;;21.47;66.16;95550.25;6261859;23;20066;-81
2022/05/23 16:48:06;;;;;;;4.18;2.38;;;;;;;21.37;65.73;95551.09;6260274;23;20048;-83
2022/05/23 16:50:34;;;;;;;4.50;2.17;;;;;;;21.27;65.60;95554.59;6262965;23;20016;-83
2022/05/23 16:53:02;;;;;;;5.00;2.00;;;;;;;21.19;65.81;95571.91;6261637;23;20035;-82
2022/05/23 16:55:30;;;;;;;4.57;1.85;;;;;;;21.10;65.86;95570.91;6260596;23;20084;-84
2022/05/23 16:58:01;;;;;;;11.23;2.50;;;;;;;21.04;65.78;95573.84;6261499;23;20027;-86
2022/05/23 17:00:29;;;;;;;5.83;1.93;;;;;;;20.97;65.77;95559.03;6263013;23;20016;-82
2022/05/23 17:03:00;;;;;;;3.20;1.40;;;;;;;20.91;65.56;95544.19;6262860;23;20012;-86
2022/05/23 17:05:34;;;;;;;5.63;1.83;;;;;;;20.86;65.94;95535.47;6262234;23;20020;-83
2022/05/23 17:08:02;;;;;;;4.18;1.77;;;;;;;20.76;66.25;95538.97;6257315;22;20103;-78
2022/05/23 17:10:30;;;;;;;6.40;2.55;;;;;;;20.65;66.11;95540.88;6257837;23;20437;-84
2022/05/23 17:12:58;;;;;;;6.78;1.80;;;;;;;20.51;66.47;95538.00;6258316;23;20456;-80
2022/05/23 17:15:26;;;;;;;6.82;2.47;;;;;;;20.43;66.94;95522.66;6258637;23;20043;-82
2022/05/23 17:17:56;;;;;;;6.57;1.80;;;;;;;20.35;67.03;95515.25;6258161;23;20051;-85
2022/05/23 17:20:26;;;;;;;3.80;2.15;;;;;;;20.27;67.37;95507.88;6257568;23;20298;-84
2022/05/23 17:22:56;;;;;;;7.93;2.30;;;;;;;20.19;67.23;95506.56;6257568;23;20360;-83
2022/05/23 17:25:24;;;;;;;2.63;1.40;;;;;;;20.07;67.23;95485.69;6257103;23;20058;-84
2022/05/23 17:27:53;;;;;;;5.68;2.10;;;;;;;19.99;68.08;95462.44;6255827;23;20043;-82
2022/05/23 17:30:21;;;;;;;4.85;1.80;;;;;;;19.91;68.23;95452.38;6255820;23;20016;-84
2022/05/23 17:32:49;;;;;;;4.50;2.42;;;;;;;19.85;68.83;95432.28;6255995;23;20035;-82
2022/05/23 17:35:17;;;;;;;4.82;2.00;;;;;;;19.75;69.40;95428.59;6253897;23;20020;-83
2022/05/23 17:37:46;;;;;;;4.15;1.90;;;;;;;19.68;69.86;95406.91;6252654;23;20124;-82
2022/05/23 17:40:15;;;;;;;4.63;2.40;;;;;;;19.55;69.06;95387.09;6257075;23;20056;-83
2022/05/23 17:42:45;;;;;;;4.70;2.65;;;;;;;19.43;68.93;95348.75;6259173;23;20020;-85
2022/05/23 17:45:16;;;;;;;5.80;2.70;;;;;;;19.25;68.88;95318.41;6258742;23;20020;-86
2022/05/23 17:47:45;;;;;;;3.33;1.60;;;;;;;19.08;68.55;95294.91;6256945;23;20054;-85
2022/05/23 17:50:13;;;;;;;3.92;1.33;;;;;;;18.99;68.83;95304.44;6258074;23;20461;-84
2022/05/23 17:52:48;;;;;;;8.25;2.42;;;;;;;18.94;69.27;95329.03;6257658;23;20027;-79
2022/05/23 17:55:19;;;;;;;3.97;2.10;;;;;;;18.93;69.95;95386.38;6261081;23;20013;-85
2022/05/23 17:57:48;;;;;;;9.98;3.00;;;;;;;18.96;70.68;95402.72;6261528;23;20027;-83
2022/05/23 18:00:18;;;;;;;3.40;2.40;;;;;;;19.01;71.33;95416.75;6254521;23;20051;-84
2022/05/23 18:02:46;;;;;;;6.00;3.38;;;;;;;19.02;70.42;95409.59;6253549;23;20028;-80
2022/05/23 18:05:15;;;;;;;5.20;2.50;;;;;;;19.05;71.10;95404.59;6253444;23;20103;-81
2022/05/23 18:07:44;;;;;;;7.28;2.75;;;;;;;19.08;70.23;95387.41;6252645;23;20095;-82
2022/05/23 18:10:12;;;;;;;5.10;2.10;;;;;;;19.06;70.16;95394.81;6253383;23;20028;-79
2022/05/23 18:12:45;;;;;;;6.57;3.50;;;;;;;19.04;70.07;95381.84;6253773;23;20031;-81
2022/05/23 18:20:43;;;;;;;2.88;1.42;;;;;;;18.88;69.85;95394.28;6255143;23;20407;-84
2022/05/23 18:23:11;;;;;;;12.65;2.20;;;;;;;18.83;70.42;95396.94;6257174;23;20043;-81
2022/05/23 18:25:42;;;;;;;4.75;1.88;;;;;;;18.78;70.40;95409.31;6258091;23;20056;-81
2022/05/23 18:28:12;;;;;;;14.43;2.30;;;;;;;18.72;70.50;95396.09;6257759;23;20035;-83
2022/05/23 18:30:44;;;;;;;4.07;1.60;;;;;;;18.71;70.05;95406.91;6258115;23;20054;-84
2022/05/23 18:33:13;;;;;;;4.20;1.75;;;;;;;18.66;70.52;95412.97;6257148;23;20016;-87
2022/05/23 18:35:45;;;;;;;4.97;2.00;;;;;;;18.61;69.93;95415.63;6256749;23;20055;-81
2022/05/23 18:38:13;;;;;;;4.72;1.90;;;;;;;18.55;70.28;95407.94;6256381;23;20046;-83
2022/05/23 18:40:40;;;;;;;4.40;1.30;;;;;;;18.50;70.37;95409.53;6256557;23;20016;-83
2022/05/23 18:43:08;;;;;;;4.07;1.48;;;;;;;18.46;69.94;95420.88;6256801;23;20095;-81
2022/05/23 18:45:37;;;;;;;4.68;1.58;;;;;;;18.43;69.74;95410.81;6257010;23;20082;-83
2022/05/23 18:50:51;;;;;;;5.97;3.97;;;;;;;18.40;69.69;95427.19;6258846;23;20044;-82
2022/05/23 18:53:19;;;;;;;3.38;1.20;;;;;;;18.35;69.66;95417.41;6257002;23;20024;-80
2022/05/23 18:55:47;;;;;;;6.55;1.70;;;;;;;18.30;68.96;95431.38;6255340;23;20536;-80
2022/05/23 18:58:18;;;;;;;4.53;1.30;;;;;;;18.26;68.94;95413.69;6256523;23;20051;-81
2022/05/23 19:01:09;;;;;;;3.15;1.38;;;;;;;18.21;68.93;95426.84;6254472;23;20075;-81
2022/05/23 19:03:38;;;;;;;3.80;1.42;;;;;;;18.19;68.99;95434.22;6255641;23;20024;-80
2022/05/23 19:06:07;;;;;;;4.32;1.23;;;;;;;18.19;69.37;95450.06;6253870;23;20439;-78
2022/05/23 19:08:35;;;;;;;5.13;1.42;;;;;;;18.19;68.46;95455.34;6253582;22;20490;-78
2022/05/23 19:11:03;;;;;;;2.72;1.13;;;;;;;18.20;67.85;95475.44;6253363;23;20107;-79
2022/05/23 19:13:53;;;;;;;1.80;1.10;;;;;;;18.24;68.16;95484.41;6253124;23;20039;-80
2022/05/23 19:16:42;;;;;;;6.45;1.50;;;;;;;18.27;68.49;95492.59;6250096;23;20035;-79
2022/05/23 19:19:10;;;;;;;5.70;1.63;;;;;;;18.30;68.03;95494.75;6251146;23;20024;-77
2022/05/23 19:21:38;;;;;;;4.50;1.35;;;;;;;18.32;67.52;95492.66;6250616;23;20104;-76
2022/05/23 19:24:06;;;;;;;3.55;1.58;;;;;;;18.35;68.18;95501.88;6250542;23;20027;-79
2022/05/23 19:26:34;;;;;;;5.38;1.20;;;;;;;18.40;67.81;95493.97;6248565;23;20347;-78
2022/05/23 19:29:04;;;;;;;4.32;1.20;;;;;;;18.45;68.98;95504.56;6249494;23;20024;-77
2022/05/23 19:31:34;;;;;;;3.33;1.60;;;;;;;18.51;68.35;95508.00;6252234;23;20024;-81
2022/05/23 19:34:04;;;;;;;3.85;1.50;;;;;;;18.55;67.56;95505.66;6252961;23;20488;-79
2022/05/23 19:36:32;;;;;;;5.30;1.50;;;;;;;18.57;68.45;95511.47;6252337;23;20054;-77
2022/05/23 19:39:00;;;;;;;4.68;1.33;;;;;;;18.62;68.72;95506.22;6254908;23;20024;-78
2022/05/23 19:41:30;;;;;;;2.03;1.15;;;;;;;18.65;68.39;95510.97;6252919;23;20020;-76
2022/05/23 19:43:57;;;;;;;4.93;1.45;;;;;;;18.66;67.81;95512.56;6254590;23;20050;-82
2022/05/23 19:46:25;;;;;;;3.95;1.40;;;;;;;18.66;67.44;95518.63;6251440;23;20099;-80
2022/05/23 19:48:53;;;;;;;3.28;1.27;;;;;;;18.65;66.89;95510.97;6250910;23;20320;-80
2022/05/23 19:51:22;;;;;;;2.45;1.25;;;;;;;18.68;67.64;95518.38;6251522;23;20078;-77
2022/05/23 19:53:50;;;;;;;5.90;1.67;;;;;;;18.69;67.29;95520.78;6250902;23;20024;-81
2022/05/23 19:56:17;;;;;;;3.33;1.40;;;;;;;18.73;67.98;95523.69;6250926;23;20099;-80
2022/05/23 19:59:02;;;;;;;3.53;1.60;;;;;;;18.72;66.49;95533.44;6249485;23;20460;-77
2022/05/23 20:07:01;;;;;;;5.72;2.33;;;;;;;18.74;67.79;95539.28;6250991;23;20486;-77
2022/05/23 20:07:06;;;;;;;6.70;3.78;;;;;;;18.78;67.75;95550.13;6248824;23;20042;-79
2022/05/23 20:09:34;;;;;;;5.60;2.25;;;;;;;18.82;68.52;95550.41;6249449;22;20766;-77
2022/05/23 20:12:01;;;;;;;5.07;1.80;;;;;;;18.83;67.28;95547.53;6265023;22;20106;-77
2022/05/23 20:17:10;;;;;;;7.85;1.67;;;;;;;18.81;66.51;95560.19;6275745;22;20380;-77
2022/05/23 20:19:38;;;;;;;3.70;1.55;;;;;;;18.82;68.26;95563.63;6276180;22;20045;-78
2022/05/23 20:22:08;;;;;;;4.43;1.60;;;;;;;18.84;67.21;95569.44;6276595;22;20467;-77
2022/05/23 20:24:36;;;;;;;2.55;1.52;;;;;;;18.84;67.80;95578.16;6276640;22;20536;-77
2022/05/23 20:27:04;;;;;;;3.65;1.80;;;;;;;18.85;68.13;95579.75;6276190;22;20027;-77
2022/05/23 20:29:32;;;;;;;5.97;2.75;;;;;;;18.85;68.00;95578.97;6277350;22;20016;-77
2022/05/23 20:32:02;;;;;;;5.38;1.90;;;;;;;18.84;67.04;95575.53;6276768;22;20027;-76
2022/05/23 20:34:46;;;;;;;4.28;1.70;;;;;;;18.83;67.43;95579.22;6277481;22;20026;-76
2022/05/23 20:37:15;;;;;;;5.38;2.20;;;;;;;18.84;68.20;95583.44;6276483;22;20030;-75
2022/05/23 20:39:43;;;;;;;3.78;1.92;;;;;;;18.80;68.36;95582.38;6277007;22;20356;-76
2022/05/23 20:42:12;;;;;;;3.53;1.77;;;;;;;18.80;69.73;95577.09;6281168;22;20022;-74
2022/05/23 20:44:40;;;;;;;3.70;2.03;;;;;;;18.79;68.21;95586.06;6278428;22;20099;-75
2022/05/23 20:47:08;;;;;;;4.63;1.77;;;;;;;18.77;68.03;95582.88;6275119;22;20024;-77
2022/05/23 20:49:36;;;;;;;4.45;1.83;;;;;;;18.81;69.50;95580.53;6274984;22;20023;-75
2022/05/23 20:52:06;;;;;;;3.20;1.90;;;;;;;18.79;68.63;95590.56;6273841;22;20015;-75
2022/05/23 20:54:35;;;;;;;7.72;2.30;;;;;;;18.71;68.21;95575.97;6273885;22;20020;-75
2022/05/23 20:57:04;;;;;;;9.23;2.42;;;;;;;18.63;68.87;95587.84;6273717;22;20106;-75
2022/05/23 20:59:31;;;;;;;3.42;1.83;;;;;;;18.61;69.15;95584.66;6274928;22;20102;-78
2022/05/23 21:02:02;;;;;;;6.07;2.50;;;;;;;18.57;68.61;95582.78;6275390;22;20099;-75
2022/05/23 21:04:32;;;;;;;4.60;2.13;;;;;;;18.51;69.19;95569.53;6276505;22;20098;-75
2022/05/23 21:07:02;;;;;;;6.35;2.10;;;;;;;18.48;68.52;95570.06;6275385;22;20019;-75
2022/05/23 21:09:31;;;;;;;4.53;2.40;;;;;;;18.45;68.76;95570.56;6277087;22;20486;-75
2022/05/23 21:12:00;;;;;;;4.53;2.17;;;;;;;18.44;68.65;95574.28;6276034;22;20020;-75
2022/05/23 21:14:31;;;;;;;6.30;1.92;;;;;;;18.39;68.88;95581.34;6277258;22;20016;-75
2022/05/23 21:17:01;;;;;;;3.58;1.98;;;;;;;18.38;69.16;95579.78;6275653;22;20102;-75
2022/05/23 21:19:30;;;;;;;6.57;3.05;;;;;;;18.37;69.34;95583.47;6276658;22;20372;-75
2022/05/23 21:21:58;;;;;;;6.00;2.70;;;;;;;18.32;69.18;95577.13;6276500;22;20078;-76
2022/05/23 21:24:26;;;;;;;4.32;2.00;;;;;;;18.29;69.78;95584.75;6276819;22;20409;-75
2022/05/23 21:26:54;;;;;;;4.45;2.30;;;;;;;18.28;70.45;95585.81;6275087;22;20098;-75
2022/05/23 21:29:23;;;;;;;7.47;2.85;;;;;;;18.27;70.36;95594.75;6275213;22;20090;-75
2022/05/23 21:31:50;;;;;;;6.82;2.67;;;;;;;18.28;70.50;95591.09;6275525;22;20026;-75
2022/05/23 21:34:18;;;;;;;4.63;2.60;;;;;;;18.30;70.23;95588.97;6275256;22;20460;-74
2022/05/23 21:36:46;;;;;;;7.32;2.35;;;;;;;18.25;69.67;95584.44;6274921;22;20082;-76
2022/05/23 21:39:14;;;;;;;7.63;2.72;;;;;;;18.20;69.86;95591.56;6275738;22;20456;-75
2022/05/23 21:47:26;;;;;;;7.90;3.22;;;;;;;18.15;71.06;95596.78;6274875;22;20095;-75